Time;durP1;ratioP1;P1;durP2;ratioP2;P2;SDS_P1;SDS_P2;PMS_P1;PMS_P2;Temp;Humidity;BMP_temperature;BMP_pressure;BME280_temperature;BME280_humidity;BME280_pressure;Samples;Min_cycle;Max_cycle;Signal;HPM_P1;HPM_P2
2021/09/21 00:01:21;;;;;;;4.78;1.65;;;18.50;57.20;;;;;;5013129;28;20060;-61
2021/09/21 00:03:47;;;;;;;6.00;1.58;;;18.50;57.30;;;;;;5013199;28;20053;-61
2021/09/21 00:06:13;;;;;;;4.15;1.50;;;18.50;57.30;;;;;;5011900;28;20377;-62
2021/09/21 00:08:39;;;;;;;3.90;1.73;;;18.50;57.30;;;;;;5013137;28;20022;-61
2021/09/21 00:11:05;;;;;;;5.15;1.80;;;18.50;57.30;;;;;;5011871;28;20474;-61
2021/09/21 00:13:31;;;;;;;4.82;1.65;;;18.50;57.30;;;;;;5013104;28;20026;-61
2021/09/21 00:15:58;;;;;;;4.50;1.80;;;18.50;57.30;;;;;;5013100;28;20049;-61
2021/09/21 00:18:24;;;;;;;3.25;1.40;;;18.50;57.30;;;;;;5013362;28;20054;-61
2021/09/21 00:20:49;;;;;;;3.50;1.60;;;18.50;57.20;;;;;;5013235;28;20441;-61
2021/09/21 00:23:15;;;;;;;3.25;1.40;;;18.50;57.30;;;;;;5013028;28;20022;-61
2021/09/21 00:25:41;;;;;;;5.68;1.50;;;18.50;57.30;;;;;;5013005;28;20113;-61
2021/09/21 00:28:06;;;;;;;4.07;1.70;;;18.50;57.30;;;;;;5012965;28;20569;-61
2021/09/21 00:30:33;;;;;;;5.10;1.85;;;18.50;57.30;;;;;;5012892;28;20030;-61
2021/09/21 00:33:05;;;;;;;4.97;1.90;;;18.50;57.30;;;;;;5013232;28;20534;-61
2021/09/21 00:35:34;;;;;;;6.57;1.50;;;18.40;57.30;;;;;;5016849;28;20469;-61
2021/09/21 00:38:02;;;;;;;5.57;1.65;;;18.40;57.30;;;;;;5016984;28;20088;-61
2021/09/21 00:40:28;;;;;;;2.90;1.30;;;18.40;57.30;;;;;;5016633;28;20033;-61
2021/09/21 00:42:54;;;;;;;4.80;1.67;;;18.40;57.30;;;;;;5016672;28;20018;-62
2021/09/21 00:45:24;;;;;;;4.03;1.48;;;18.40;57.30;;;;;;5016653;28;20018;-61
2021/09/21 00:47:50;;;;;;;4.07;1.85;;;18.40;57.30;;;;;;5016327;28;20497;-61
2021/09/21 00:50:17;;;;;;;8.38;1.98;;;18.40;57.30;;;;;;5016555;28;20037;-61
2021/09/21 00:52:43;;;;;;;2.60;1.30;;;18.40;57.30;;;;;;5016428;28;20111;-61
2021/09/21 00:55:09;;;;;;;2.55;1.25;;;18.40;57.30;;;;;;5016506;28;20062;-61
2021/09/21 00:57:36;;;;;;;2.70;1.40;;;18.40;57.40;;;;;;5016447;28;20029;-61
2021/09/21 01:00:07;;;;;;;4.88;1.30;;;18.40;57.40;;;;;;5014945;28;20442;-61
2021/09/21 01:02:33;;;;;;;4.53;1.50;;;18.40;57.40;;;;;;5016273;28;20025;-61
2021/09/21 01:04:59;;;;;;;3.30;1.55;;;18.40;57.40;;;;;;5016482;28;20029;-61
2021/09/21 01:07:24;;;;;;;3.58;1.60;;;18.40;57.40;;;;;;5016186;28;20049;-61
2021/09/21 01:10:00;;;;;;;3.63;1.50;;;18.40;57.30;;;;;;5016158;28;20025;-61
2021/09/21 01:12:26;;;;;;;6.07;1.83;;;18.30;57.30;;;;;;5016161;28;20109;-61
2021/09/21 01:14:51;;;;;;;3.75;1.70;;;18.30;57.40;;;;;;5016016;28;20101;-61
2021/09/21 01:17:17;;;;;;;5.45;1.98;;;18.40;57.40;;;;;;5015996;28;20029;-61
2021/09/21 01:19:43;;;;;;;4.00;1.52;;;18.30;57.40;;;;;;5015930;28;20040;-61
2021/09/21 01:22:08;;;;;;;4.60;1.70;;;18.30;57.40;;;;;;5016067;28;20026;-61
2021/09/21 01:24:34;;;;;;;3.53;1.60;;;18.30;57.30;;;;;;5016196;28;20512;-61
2021/09/21 01:26:59;;;;;;;3.67;1.65;;;18.30;57.40;;;;;;5016080;28;20534;-61
2021/09/21 01:29:25;;;;;;;5.00;1.60;;;18.30;57.40;;;;;;5015683;28;20021;-61
2021/09/21 01:31:50;;;;;;;4.57;1.45;;;18.30;57.40;;;;;;5015785;28;20378;-61
2021/09/21 01:34:19;;;;;;;2.85;1.35;;;18.30;57.40;;;;;;5016030;28;20033;-61
2021/09/21 01:36:45;;;;;;;3.72;1.40;;;18.30;57.40;;;;;;5015658;28;20028;-61
2021/09/21 01:39:11;;;;;;;3.08;1.38;;;18.20;57.40;;;;;;5015648;28;20057;-61
2021/09/21 01:41:36;;;;;;;2.90;1.40;;;18.30;57.40;;;;;;5015534;28;20112;-61
2021/09/21 01:44:02;;;;;;;3.60;1.48;;;18.20;57.40;;;;;;5015468;28;20026;-61
2021/09/21 01:46:28;;;;;;;3.05;1.42;;;18.30;57.40;;;;;;5014404;28;20054;-61
2021/09/21 01:48:53;;;;;;;3.50;1.52;;;18.20;57.40;;;;;;5015281;28;20120;-61
2021/09/21 01:51:30;;;;;;;4.63;1.40;;;18.20;57.40;;;;;;5015398;28;20017;-61
2021/09/21 01:59:24;;;;;;;2.85;1.48;;;18.20;57.50;;;;;;5015512;28;20489;-61
2021/09/21 02:01:49;;;;;;;6.43;1.42;;;18.20;57.50;;;;;;5013958;28;20038;-61
2021/09/21 02:04:15;;;;;;;4.20;1.73;;;18.20;57.50;;;;;;5015098;28;20025;-61
2021/09/21 02:06:41;;;;;;;3.88;1.65;;;18.20;57.50;;;;;;5015076;28;20048;-61
2021/09/21 02:09:12;;;;;;;4.63;1.48;;;18.20;57.50;;;;;;5015042;28;20387;-62
2021/09/21 02:11:38;;;;;;;3.60;1.40;;;18.20;57.50;;;;;;5013797;28;20508;-61
2021/09/21 02:14:07;;;;;;;3.67;1.77;;;18.20;57.50;;;;;;5013667;28;20030;-61
2021/09/21 02:16:33;;;;;;;2.78;1.33;;;18.20;57.50;;;;;;5014974;28;20025;-61
2021/09/21 02:18:59;;;;;;;4.30;1.50;;;18.10;57.50;;;;;;5014919;28;20030;-61
2021/09/21 02:21:25;;;;;;;3.13;1.38;;;18.20;57.40;;;;;;5014670;28;20030;-61
2021/09/21 02:23:52;;;;;;;3.67;1.42;;;18.20;57.50;;;;;;5015012;28;20049;-61
2021/09/21 02:26:17;;;;;;;4.20;1.35;;;18.20;57.50;;;;;;5014796;28;20497;-61
2021/09/21 02:28:43;;;;;;;3.22;1.50;;;18.20;57.40;;;;;;5014837;28;20030;-61
2021/09/21 02:31:09;;;;;;;2.97;1.38;;;18.20;57.50;;;;;;5014856;28;20087;-61
2021/09/21 02:33:35;;;;;;;2.40;1.15;;;18.10;57.50;;;;;;5014626;28;20472;-61
2021/09/21 02:36:00;;;;;;;3.50;1.45;;;18.10;57.50;;;;;;5014567;28;20065;-61
2021/09/21 02:38:26;;;;;;;3.58;1.60;;;18.10;57.60;;;;;;5014579;28;20433;-62
2021/09/21 02:40:52;;;;;;;4.10;1.40;;;18.10;57.60;;;;;;5014401;28;20041;-61
2021/09/21 02:43:17;;;;;;;5.13;1.60;;;18.10;57.60;;;;;;5014434;28;20056;-61
2021/09/21 02:45:43;;;;;;;3.78;1.60;;;18.10;57.60;;;;;;5014389;28;20032;-61
2021/09/21 02:48:08;;;;;;;3.15;1.30;;;18.10;57.60;;;;;;5012837;28;20038;-61
2021/09/21 02:50:34;;;;;;;3.28;1.55;;;18.10;57.60;;;;;;5014270;28;20029;-61
2021/09/21 02:53:00;;;;;;;3.10;1.50;;;18.10;57.60;;;;;;5013024;28;20385;-61
2021/09/21 02:55:26;;;;;;;3.88;1.63;;;18.10;57.60;;;;;;5014169;28;20034;-61
2021/09/21 02:57:51;;;;;;;3.70;1.58;;;18.10;57.70;;;;;;5013938;28;20048;-61
2021/09/21 03:00:22;;;;;;;3.95;1.55;;;18.10;57.70;;;;;;5012841;28;20033;-61
2021/09/21 03:02:48;;;;;;;4.95;1.60;;;18.10;57.70;;;;;;5014122;28;20022;-61
2021/09/21 03:05:18;;;;;;;3.13;1.60;;;18.00;57.70;;;;;;5014224;28;20033;-61
2021/09/21 03:07:52;;;;;;;3.30;1.17;;;18.10;57.70;;;;;;5014009;28;20022;-61
2021/09/21 03:18:01;;;;;;;;;;;18.00;57.80;;;;;;5014531;28;20540;-60
2021/09/21 03:20:27;;;;;;;3.03;1.33;;;18.00;57.80;;;;;;5013726;28;19913;-61
2021/09/21 03:22:53;;;;;;;2.97;1.40;;;18.00;57.90;;;;;;5013982;28;20480;-61
2021/09/21 03:25:18;;;;;;;3.97;1.55;;;18.00;57.90;;;;;;5013695;28;20092;-61
2021/09/21 03:27:45;;;;;;;3.03;1.35;;;18.00;57.90;;;;;;5013679;28;20029;-61
2021/09/21 03:30:12;;;;;;;3.25;1.50;;;18.00;57.90;;;;;;5013560;28;20061;-61
2021/09/21 03:32:38;;;;;;;2.67;1.30;;;18.00;58.00;;;;;;5013567;28;20485;-61
2021/09/21 03:35:05;;;;;;;4.80;1.83;;;17.90;58.00;;;;;;5013474;28;20109;-61
2021/09/21 03:37:31;;;;;;;4.97;1.42;;;18.00;58.00;;;;;;5013558;28;20061;-61
2021/09/21 03:39:57;;;;;;;2.60;1.30;;;18.00;58.00;;;;;;5013368;28;20037;-61
2021/09/21 03:42:23;;;;;;;6.47;2.20;;;18.00;58.00;;;;;;5013445;28;20034;-61
2021/09/21 03:44:49;;;;;;;4.40;1.73;;;18.00;58.00;;;;;;5013363;28;20024;-61
2021/09/21 03:47:14;;;;;;;4.00;1.38;;;17.90;58.10;;;;;;5013250;28;20034;-61
2021/09/21 03:49:40;;;;;;;4.15;1.52;;;17.90;58.10;;;;;;5013339;28;20069;-61
2021/09/21 03:52:06;;;;;;;3.85;1.55;;;17.90;58.10;;;;;;5013338;28;20026;-61
2021/09/21 03:54:31;;;;;;;3.40;1.40;;;17.90;58.10;;;;;;5013307;28;20508;-61
2021/09/21 03:56:57;;;;;;;3.20;1.25;;;17.90;58.10;;;;;;5013236;28;20287;-61
2021/09/21 03:59:24;;;;;;;3.03;1.45;;;17.90;58.10;;;;;;5011814;28;20030;-62
2021/09/21 04:01:50;;;;;;;3.65;1.48;;;17.90;58.00;;;;;;5013285;28;20108;-61
2021/09/21 04:04:16;;;;;;;4.45;1.75;;;17.90;58.20;;;;;;5013174;28;20030;-61
2021/09/21 04:06:42;;;;;;;3.95;1.60;;;17.90;58.20;;;;;;5013104;28;20061;-61
2021/09/21 04:09:07;;;;;;;3.83;1.60;;;17.90;58.20;;;;;;5018072;28;20040;-61
2021/09/21 04:11:33;;;;;;;4.10;1.52;;;17.90;58.20;;;;;;5018434;28;20153;-61
2021/09/21 04:13:58;;;;;;;4.75;1.73;;;17.80;58.20;;;;;;5019584;28;20079;-61
2021/09/21 04:16:24;;;;;;;3.33;1.60;;;17.80;58.20;;;;;;5019809;28;20076;-61
2021/09/21 04:18:49;;;;;;;5.45;1.60;;;17.80;58.20;;;;;;5019516;28;20033;-61
2021/09/21 04:21:15;;;;;;;4.25;1.38;;;17.80;58.20;;;;;;5018160;28;20036;-61
2021/09/21 04:23:41;;;;;;;2.50;1.30;;;17.80;58.30;;;;;;5019816;28;20022;-61
2021/09/21 04:26:07;;;;;;;3.58;1.73;;;17.80;58.30;;;;;;5019630;28;20072;-61
2021/09/21 04:28:34;;;;;;;3.25;1.35;;;17.80;58.30;;;;;;5019475;28;20028;-61
2021/09/21 04:31:08;;;;;;;4.13;1.70;;;17.80;58.30;;;;;;5019699;28;20390;-61
2021/09/21 04:33:36;;;;;;;2.47;1.40;;;17.80;58.30;;;;;;5018443;28;20469;-61
2021/09/21 04:36:03;;;;;;;2.83;1.35;;;17.80;58.30;;;;;;5019397;28;20527;-61
2021/09/21 04:38:29;;;;;;;2.97;1.40;;;17.80;58.40;;;;;;5019635;28;20041;-61
2021/09/21 04:40:54;;;;;;;3.50;1.50;;;17.80;58.30;;;;;;5018060;28;20140;-61
2021/09/21 04:43:20;;;;;;;3.03;1.40;;;17.70;58.30;;;;;;5019322;28;20029;-60
2021/09/21 04:45:45;;;;;;;3.55;1.45;;;17.80;58.40;;;;;;5019317;28;20045;-60
2021/09/21 04:48:11;;;;;;;3.40;1.50;;;17.70;58.40;;;;;;5019139;28;20401;-61
2021/09/21 04:50:37;;;;;;;4.03;1.50;;;17.70;58.40;;;;;;5019313;28;20032;-61
2021/09/21 04:53:02;;;;;;;3.72;1.40;;;17.70;58.40;;;;;;5019256;28;20152;-61
2021/09/21 04:55:28;;;;;;;3.30;1.40;;;17.70;58.40;;;;;;5019238;28;20065;-61
2021/09/21 04:57:54;;;;;;;3.00;1.40;;;17.80;58.40;;;;;;5019088;28;20022;-61
2021/09/21 05:00:19;;;;;;;4.47;1.48;;;17.70;58.40;;;;;;5019082;28;20429;-61
2021/09/21 05:02:45;;;;;;;3.40;1.20;;;17.70;58.40;;;;;;5019416;28;20026;-61
2021/09/21 05:05:10;;;;;;;2.78;1.30;;;17.70;58.50;;;;;;5019153;28;20068;-61
2021/09/21 05:07:36;;;;;;;3.60;1.70;;;17.70;58.50;;;;;;5019090;28;20029;-61
2021/09/21 05:10:02;;;;;;;3.38;1.45;;;17.70;58.40;;;;;;5019100;28;20046;-61
2021/09/21 05:12:28;;;;;;;3.63;1.67;;;17.70;58.40;;;;;;5019375;28;20409;-61
2021/09/21 05:14:53;;;;;;;2.95;1.60;;;17.70;58.50;;;;;;5019242;28;20029;-61
2021/09/21 05:17:19;;;;;;;4.85;1.67;;;17.70;58.50;;;;;;5019042;28;20034;-61
2021/09/21 05:19:45;;;;;;;3.45;1.23;;;17.70;58.50;;;;;;5017934;28;20030;-61
2021/09/21 05:22:10;;;;;;;3.00;1.50;;;17.70;58.50;;;;;;5015976;28;20509;-61
2021/09/21 05:24:36;;;;;;;3.75;1.48;;;17.70;58.50;;;;;;5015732;28;20061;-62
2021/09/21 05:27:01;;;;;;;2.10;1.40;;;17.60;58.50;;;;;;5015755;28;20386;-61
2021/09/21 05:29:27;;;;;;;3.25;1.50;;;17.60;58.50;;;;;;5015717;28;20496;-61
2021/09/21 05:31:52;;;;;;;2.60;1.17;;;17.60;58.60;;;;;;5015767;28;20041;-61
2021/09/21 05:34:18;;;;;;;3.55;1.48;;;17.60;58.60;;;;;;5015687;28;20030;-61
2021/09/21 05:36:43;;;;;;;3.30;1.50;;;17.60;58.60;;;;;;5015941;28;20030;-61
2021/09/21 05:39:09;;;;;;;3.53;1.42;;;17.60;58.60;;;;;;5015614;28;20026;-61
2021/09/21 05:41:34;;;;;;;3.55;1.50;;;17.60;58.60;;;;;;5015456;28;20393;-61
2021/09/21 05:44:00;;;;;;;3.08;1.60;;;17.60;58.60;;;;;;5014332;28;20026;-61
2021/09/21 05:46:26;;;;;;;3.85;1.58;;;17.60;58.60;;;;;;5015484;28;20026;-61
2021/09/21 05:48:52;;;;;;;3.22;1.52;;;17.60;58.50;;;;;;5015280;28;20053;-61
2021/09/21 05:51:18;;;;;;;4.55;2.03;;;17.60;58.60;;;;;;5014137;28;20049;-61
2021/09/21 05:53:43;;;;;;;7.53;1.70;;;17.50;58.60;;;;;;5005865;28;20061;-61
2021/09/21 05:56:09;;;;;;;2.42;1.08;;;17.60;58.50;;;;;;5000331;28;20536;-61
2021/09/21 05:58:35;;;;;;;2.97;1.38;;;17.70;58.50;;;;;;5003519;28;20373;-61
2021/09/21 06:01:01;;;;;;;4.13;1.80;;;17.70;58.50;;;;;;5009957;28;20034;-61
2021/09/21 06:03:26;;;;;;;3.13;1.40;;;17.70;58.40;;;;;;5013663;28;20457;-61
2021/09/21 06:05:52;;;;;;;3.63;1.50;;;17.70;58.50;;;;;;5008679;28;20053;-60
2021/09/21 06:08:17;;;;;;;2.53;1.30;;;17.60;58.60;;;;;;5002173;28;20030;-60
2021/09/21 06:10:43;;;;;;;4.43;1.60;;;17.60;58.60;;;;;;5007151;28;20029;-60
2021/09/21 06:13:09;;;;;;;3.65;1.65;;;17.60;58.70;;;;;;5012334;28;20113;-62
2021/09/21 06:15:34;;;;;;;3.28;1.38;;;17.70;58.70;;;;;;5010792;28;20029;-60
2021/09/21 06:18:00;;;;;;;3.97;1.88;;;17.70;58.70;;;;;;5001391;28;20121;-60
2021/09/21 06:20:25;;;;;;;3.13;1.30;;;17.70;58.70;;;;;;5013593;28;20283;-60
2021/09/21 06:22:51;;;;;;;3.55;1.65;;;17.70;58.60;;;;;;5013509;28;20018;-60
2021/09/21 06:25:18;;;;;;;3.88;1.70;;;17.70;58.60;;;;;;5013316;28;20080;-61
2021/09/21 06:27:44;;;;;;;4.75;1.58;;;17.70;58.70;;;;;;5008777;28;20022;-60
2021/09/21 06:30:13;;;;;;;4.03;1.42;;;17.70;58.80;;;;;;4996408;28;20131;-60
2021/09/21 06:32:40;;;;;;;4.43;1.77;;;17.70;58.80;;;;;;4998472;28;20042;-61
2021/09/21 06:35:08;;;;;;;4.78;1.95;;;17.70;58.90;;;;;;4983143;28;20015;-61
2021/09/21 06:37:33;;;;;;;2.80;1.30;;;17.70;59.00;;;;;;4975157;28;20034;-60
2021/09/21 06:39:59;;;;;;;4.55;1.67;;;17.70;59.00;;;;;;4993391;28;20034;-60
2021/09/21 06:42:25;;;;;;;2.10;1.23;;;17.70;59.00;;;;;;4998722;28;20504;-61
2021/09/21 06:44:51;;;;;;;4.00;1.73;;;17.70;59.00;;;;;;4991284;28;20088;-62
2021/09/21 06:47:17;;;;;;;3.90;1.70;;;17.70;59.10;;;;;;5010835;28;20116;-61
2021/09/21 06:49:43;;;;;;;3.13;1.40;;;17.70;59.10;;;;;;5006079;28;20547;-62
2021/09/21 06:52:09;;;;;;;4.45;1.58;;;17.80;59.10;;;;;;4997092;28;20030;-60
2021/09/21 06:54:34;;;;;;;3.53;1.70;;;17.80;59.20;;;;;;4989186;28;20037;-60
2021/09/21 06:57:00;;;;;;;5.22;1.73;;;17.80;59.10;;;;;;5003894;28;20032;-61
2021/09/21 06:59:26;;;;;;;3.72;1.80;;;17.80;59.10;;;;;;4998614;28;20030;-60
2021/09/21 07:01:51;;;;;;;3.13;1.45;;;17.80;59.00;;;;;;4998265;28;20060;-61
2021/09/21 07:04:17;;;;;;;2.95;1.52;;;17.80;59.10;;;;;;4979549;28;20076;-60
2021/09/21 07:06:43;;;;;;;5.78;1.65;;;17.80;59.00;;;;;;4993885;28;20026;-60
2021/09/21 07:09:09;;;;;;;3.97;1.60;;;17.90;59.00;;;;;;4998920;28;20027;-60
2021/09/21 07:11:34;;;;;;;3.28;1.70;;;17.90;59.00;;;;;;4994280;28;20018;-60
2021/09/21 07:14:00;;;;;;;3.65;1.60;;;17.90;59.00;;;;;;4991079;28;20033;-60
2021/09/21 07:16:25;;;;;;;4.05;1.80;;;17.90;59.00;;;;;;5005881;28;20143;-60
2021/09/21 07:18:51;;;;;;;5.80;1.70;;;17.90;59.00;;;;;;5002529;28;20032;-61
2021/09/21 07:21:16;;;;;;;3.88;1.77;;;17.90;59.00;;;;;;5005789;28;20061;-61
2021/09/21 07:23:42;;;;;;;3.30;1.38;;;18.00;58.80;;;;;;4985620;28;20172;-60
2021/09/21 07:26:08;;;;;;;5.60;1.92;;;18.00;58.80;;;;;;5003579;28;20041;-60
2021/09/21 07:28:35;;;;;;;4.35;1.55;;;18.00;58.70;;;;;;5003370;28;20105;-60
2021/09/21 07:31:00;;;;;;;4.85;1.80;;;18.00;58.60;;;;;;5010978;28;20429;-60
2021/09/21 07:33:26;;;;;;;3.42;1.40;;;18.00;58.60;;;;;;5001003;28;20117;-62
2021/09/21 07:35:52;;;;;;;4.00;1.70;;;18.10;58.60;;;;;;5000812;28;20080;-61
2021/09/21 07:38:19;;;;;;;5.63;1.70;;;18.10;58.60;;;;;;5010433;28;20489;-60
2021/09/21 07:40:46;;;;;;;3.30;1.50;;;18.10;58.60;;;;;;5002314;28;20477;-60
2021/09/21 07:43:11;;;;;;;4.38;1.90;;;18.20;58.50;;;;;;4993571;28;20066;-60
2021/09/21 07:45:37;;;;;;;4.10;1.77;;;18.10;58.50;;;;;;4990321;28;20108;-61
2021/09/21 07:48:04;;;;;;;15.77;1.70;;;18.20;58.50;;;;;;4993167;28;20399;-60
2021/09/21 07:50:30;;;;;;;3.42;1.50;;;18.20;58.40;;;;;;5005266;28;20445;-61
2021/09/21 07:52:56;;;;;;;4.13;1.63;;;18.20;58.40;;;;;;4986885;28;20026;-61
2021/09/21 07:55:22;;;;;;;4.00;1.70;;;18.20;58.40;;;;;;4998392;28;20098;-61
2021/09/21 07:57:48;;;;;;;4.03;1.60;;;18.30;58.40;;;;;;4993366;28;20147;-60
2021/09/21 08:00:15;;;;;;;7.28;1.90;;;18.30;58.40;;;;;;4997504;28;20034;-62
2021/09/21 08:02:42;;;;;;;5.50;1.70;;;18.30;58.40;;;;;;4993002;28;20058;-62
2021/09/21 08:05:08;;;;;;;5.05;1.98;;;18.30;58.40;;;;;;4991873;28;20018;-60
2021/09/21 08:07:34;;;;;;;3.35;1.60;;;18.30;58.40;;;;;;5007564;28;20474;-60
2021/09/21 08:10:01;;;;;;;4.40;1.90;;;18.30;58.40;;;;;;4993899;28;20034;-60
2021/09/21 08:12:27;;;;;;;3.83;1.70;;;18.30;58.30;;;;;;5008932;28;20035;-61
2021/09/21 08:14:53;;;;;;;4.20;2.00;;;18.30;58.30;;;;;;4985840;28;20026;-60
2021/09/21 08:17:22;;;;;;;4.50;2.10;;;18.30;58.30;;;;;;4996557;28;20482;-61
2021/09/21 08:19:49;;;;;;;4.68;1.83;;;18.30;58.30;;;;;;5007465;28;20405;-59
2021/09/21 08:22:15;;;;;;;6.00;2.00;;;18.40;58.30;;;;;;4998896;28;20142;-61
2021/09/21 08:24:40;;;;;;;4.85;2.22;;;18.40;58.20;;;;;;4980394;28;20046;-60
2021/09/21 08:27:06;;;;;;;5.05;1.55;;;18.40;58.30;;;;;;5011880;28;20029;-61
2021/09/21 08:29:31;;;;;;;3.88;1.75;;;18.40;58.20;;;;;;5010500;28;20057;-61
2021/09/21 08:31:57;;;;;;;3.75;1.73;;;18.40;58.20;;;;;;4999398;28;20033;-60
2021/09/21 08:34:23;;;;;;;5.05;1.60;;;18.40;58.20;;;;;;4984984;28;20030;-61
2021/09/21 08:36:50;;;;;;;4.32;1.80;;;18.40;58.20;;;;;;4997705;28;20030;-60
2021/09/21 08:39:17;;;;;;;5.90;1.60;;;18.40;58.20;;;;;;4993017;28;20097;-60
2021/09/21 08:41:43;;;;;;;9.60;1.80;;;18.50;58.20;;;;;;5006740;28;20045;-60
2021/09/21 08:44:09;;;;;;;4.22;1.67;;;18.50;58.20;;;;;;4995395;28;20034;-59
2021/09/21 08:46:35;;;;;;;3.88;1.88;;;18.40;58.30;;;;;;4995909;28;20053;-60
2021/09/21 08:49:01;;;;;;;4.25;2.13;;;18.50;58.30;;;;;;4994848;28;20482;-61
2021/09/21 08:51:27;;;;;;;5.78;2.10;;;18.50;58.20;;;;;;4992070;28;20482;-59
2021/09/21 08:53:53;;;;;;;5.55;2.20;;;18.50;58.10;;;;;;4987398;28;20033;-60
2021/09/21 08:56:20;;;;;;;4.63;1.90;;;18.50;58.20;;;;;;5014098;28;20030;-60
2021/09/21 08:59:10;;;;;;;4.53;1.80;;;18.50;58.20;;;;;;5014937;28;20013;-60
2021/09/21 09:01:46;;;;;;;4.45;1.73;;;18.50;58.30;;;;;;5014616;28;20121;-60
2021/09/21 09:04:14;;;;;;;4.60;1.90;;;18.50;58.20;;;;;;5006275;28;20390;-61
2021/09/21 09:07:00;;;;;;;4.78;2.00;;;18.50;58.20;;;;;;5013988;28;20460;-60
2021/09/21 09:09:29;;;;;;;6.25;1.88;;;18.60;58.20;;;;;;5008956;28;20268;-61
2021/09/21 09:11:57;;;;;;;4.53;1.70;;;18.60;58.10;;;;;;5014937;28;20049;-61
2021/09/21 09:14:24;;;;;;;4.88;1.92;;;18.60;58.10;;;;;;5005794;28;20034;-60
2021/09/21 09:16:57;;;;;;;2.75;1.50;;;18.60;58.10;;;;;;5014970;28;20041;-60
2021/09/21 09:19:35;;;;;;;4.13;1.73;;;18.60;58.00;;;;;;5006814;28;20132;-60
2021/09/21 09:22:21;;;;;;;3.53;1.83;;;18.60;58.00;;;;;;5014989;28;20111;-60
2021/09/21 09:24:59;;;;;;;5.63;2.00;;;18.60;58.00;;;;;;5004570;28;20033;-60
2021/09/21 09:27:54;;;;;;;4.35;2.03;;;18.70;58.00;;;;;;5013855;28;20382;-60
2021/09/21 09:30:22;;;;;;;4.93;2.10;;;18.60;58.00;;;;;;5000888;28;20080;-60
2021/09/21 09:32:59;;;;;;;5.97;2.00;;;18.60;58.10;;;;;;5010669;28;20034;-60
2021/09/21 09:35:34;;;;;;;3.85;1.48;;;18.70;58.00;;;;;;5011629;28;20030;-60
2021/09/21 09:38:04;;;;;;;4.80;1.70;;;18.70;58.10;;;;;;5014478;28;20022;-60
2021/09/21 09:40:30;;;;;;;2.80;1.40;;;18.70;58.00;;;;;;5009400;28;20075;-60
2021/09/21 09:42:56;;;;;;;7.57;2.17;;;18.70;58.10;;;;;;5004120;28;20116;-60
2021/09/21 09:45:35;;;;;;;4.53;2.08;;;18.60;58.10;;;;;;4994203;28;20451;-60
2021/09/21 09:48:00;;;;;;;7.25;2.03;;;18.70;58.10;;;;;;5013054;28;20042;-60
2021/09/21 09:50:32;;;;;;;3.88;1.77;;;18.70;58.10;;;;;;5011583;28;20038;-60
2021/09/21 09:53:12;;;;;;;4.03;1.90;;;18.70;58.00;;;;;;4996002;28;20445;-60
2021/09/21 09:55:40;;;;;;;3.78;1.90;;;18.80;57.80;;;;;;4995352;28;20030;-60
2021/09/21 09:58:07;;;;;;;4.75;1.90;;;18.90;57.80;;;;;;5005187;28;20034;-60
2021/09/21 10:00:34;;;;;;;6.15;1.90;;;18.90;57.70;;;;;;5011876;28;20397;-61
2021/09/21 10:03:00;;;;;;;3.83;1.92;;;18.90;57.80;;;;;;5008817;28;20026;-60
2021/09/21 10:05:28;;;;;;;3.75;1.90;;;18.90;57.70;;;;;;5001442;28;20018;-59
2021/09/21 10:07:54;;;;;;;5.25;2.00;;;19.00;57.60;;;;;;5000266;28;20034;-61
2021/09/21 10:10:20;;;;;;;3.80;1.70;;;19.10;57.60;;;;;;5010009;28;20033;-60
2021/09/21 10:12:47;;;;;;;5.43;2.10;;;19.10;57.60;;;;;;5007075;28;20026;-60
2021/09/21 10:15:14;;;;;;;6.53;2.00;;;19.10;57.50;;;;;;5000747;28;20026;-60
2021/09/21 10:17:52;;;;;;;2.85;1.25;;;19.20;57.40;;;;;;5003451;28;20030;-60
2021/09/21 10:20:17;;;;;;;4.82;1.83;;;19.20;57.40;;;;;;4994385;28;20454;-61
2021/09/21 10:22:53;;;;;;;3.90;1.80;;;19.30;57.30;;;;;;4998270;28;20061;-60
2021/09/21 10:25:28;;;;;;;3.17;1.65;;;19.30;57.30;;;;;;5004142;28;20424;-60
2021/09/21 10:27:54;;;;;;;5.43;1.85;;;19.40;57.20;;;;;;5006798;28;20022;-61
2021/09/21 10:30:23;;;;;;;4.18;1.67;;;19.40;57.20;;;;;;4992581;28;20104;-60
2021/09/21 10:32:49;;;;;;;4.95;1.92;;;19.50;57.10;;;;;;4997174;28;20033;-60
2021/09/21 10:35:21;;;;;;;5.57;1.70;;;19.50;57.10;;;;;;5004113;28;20034;-62
2021/09/21 10:38:17;;;;;;;5.10;1.60;;;19.50;57.00;;;;;;5009000;28;20038;-60
2021/09/21 10:40:46;;;;;;;4.13;1.75;;;19.50;57.10;;;;;;4987086;28;20073;-61
2021/09/21 10:43:29;;;;;;;3.25;1.65;;;19.60;57.00;;;;;;5003404;28;20026;-60
2021/09/21 10:46:09;;;;;;;5.13;1.70;;;19.60;56.90;;;;;;5004510;28;20212;-60
2021/09/21 10:48:37;;;;;;;3.50;1.60;;;19.70;56.90;;;;;;4994345;28;20051;-60
2021/09/21 10:51:04;;;;;;;3.13;1.42;;;19.70;56.80;;;;;;4994309;28;20031;-61
2021/09/21 10:53:30;;;;;;;3.25;1.20;;;19.80;56.80;;;;;;4995917;28;20032;-61
2021/09/21 10:56:15;;;;;;;3.30;1.60;;;19.80;56.70;;;;;;5000030;28;20034;-60
2021/09/21 10:58:51;;;;;;;3.13;1.33;;;19.90;56.50;;;;;;5002629;28;20033;-61
2021/09/21 11:01:17;;;;;;;2.60;1.27;;;19.90;56.50;;;;;;5001658;28;20061;-61
2021/09/21 11:03:43;;;;;;;4.25;1.95;;;20.00;56.50;;;;;;4989788;28;20052;-61
2021/09/21 11:06:08;;;;;;;4.50;1.50;;;20.00;56.40;;;;;;5002267;28;20026;-60
2021/09/21 11:08:35;;;;;;;3.05;1.60;;;20.00;56.40;;;;;;4999549;28;20018;-60
2021/09/21 11:11:04;;;;;;;5.25;1.90;;;20.10;56.40;;;;;;5008553;28;20429;-60
2021/09/21 11:13:40;;;;;;;2.90;1.40;;;20.10;56.50;;;;;;4997048;28;20686;-62
2021/09/21 11:16:09;;;;;;;3.40;1.50;;;20.10;56.50;;;;;;4999286;28;20062;-60
2021/09/21 11:18:36;;;;;;;3.20;1.38;;;20.20;56.40;;;;;;5006330;28;20033;-59
2021/09/21 11:21:04;;;;;;;4.55;1.88;;;20.30;56.30;;;;;;5012296;28;20493;-60
2021/09/21 11:23:35;;;;;;;4.10;1.50;;;20.30;56.30;;;;;;5006950;28;20029;-60
2021/09/21 11:26:04;;;;;;;3.72;1.70;;;20.30;56.40;;;;;;5008473;28;20390;-60
2021/09/21 11:28:31;;;;;;;4.93;1.90;;;20.40;56.40;;;;;;5012459;28;20160;-60
2021/09/21 11:30:59;;;;;;;4.85;1.20;;;20.40;56.40;;;;;;5008104;28;20030;-59
2021/09/21 11:33:31;;;;;;;3.65;1.90;;;20.40;56.40;;;;;;4986802;28;20390;-62
2021/09/21 11:36:04;;;;;;;3.13;1.30;;;20.50;56.30;;;;;;5004670;28;20514;-61
2021/09/21 11:38:35;;;;;;;3.53;1.88;;;20.50;56.10;;;;;;4993468;28;20466;-60
2021/09/21 11:41:02;;;;;;;4.07;1.83;;;20.60;56.10;;;;;;4995383;28;20189;-60
2021/09/21 11:43:29;;;;;;;4.38;1.70;;;20.60;56.10;;;;;;4996677;28;20049;-59
2021/09/21 11:45:55;;;;;;;3.60;1.60;;;20.60;56.00;;;;;;4998843;28;20076;-58
2021/09/21 11:48:22;;;;;;;3.67;1.98;;;20.60;56.00;;;;;;5011649;28;20488;-60
2021/09/21 11:50:49;;;;;;;5.15;1.88;;;20.70;56.00;;;;;;5011689;28;20030;-60
2021/09/21 11:53:16;;;;;;;4.75;1.60;;;20.70;56.00;;;;;;4997977;28;20069;-61
2021/09/21 11:55:45;;;;;;;4.07;1.70;;;20.70;55.90;;;;;;4995634;28;20473;-61
2021/09/21 11:58:13;;;;;;;3.83;1.58;;;20.70;55.90;;;;;;5012425;28;20030;-62
2021/09/21 12:00:49;;;;;;;3.17;1.38;;;20.80;55.30;;;;;;5010226;28;20129;-60
2021/09/21 12:03:18;;;;;;;3.47;1.58;;;20.90;56.00;;;;;;4994564;28;20101;-61
2021/09/21 12:05:46;;;;;;;4.13;1.42;;;20.80;55.40;;;;;;4991753;28;20034;-61
2021/09/21 12:08:17;;;;;;;3.95;1.77;;;20.90;55.60;;;;;;4992062;28;20029;-61
2021/09/21 12:10:49;;;;;;;4.78;1.83;;;20.90;55.50;;;;;;4990792;28;20038;-61
2021/09/21 12:13:17;;;;;;;4.60;1.60;;;20.90;55.80;;;;;;4992068;28;20073;-61
2021/09/21 12:15:47;;;;;;;2.53;1.30;;;21.00;55.70;;;;;;4991730;28;20026;-61
2021/09/21 12:18:15;;;;;;;4.25;1.60;;;21.00;55.70;;;;;;5010302;28;20481;-61
2021/09/21 12:20:42;;;;;;;4.60;1.70;;;21.00;55.60;;;;;;5010210;28;20030;-61
2021/09/21 12:23:10;;;;;;;2.92;1.30;;;21.00;55.50;;;;;;5010344;28;20022;-61
2021/09/21 12:25:40;;;;;;;3.45;1.27;;;21.10;55.30;;;;;;5010069;28;20014;-61
2021/09/21 12:28:07;;;;;;;3.88;1.33;;;21.10;55.20;;;;;;5010217;28;20488;-62
2021/09/21 12:30:40;;;;;;;3.45;1.33;;;21.10;55.30;;;;;;5013454;28;20033;-62
2021/09/21 12:33:11;;;;;;;4.10;1.83;;;21.10;55.30;;;;;;5016053;28;20022;-63
2021/09/21 12:35:40;;;;;;;3.28;1.52;;;21.10;55.40;;;;;;5016037;28;20105;-62
2021/09/21 12:38:10;;;;;;;3.97;1.60;;;21.20;55.40;;;;;;5015934;28;20029;-61
2021/09/21 12:40:49;;;;;;;3.17;1.27;;;21.20;55.20;;;;;;5015982;28;20545;-61
2021/09/21 12:43:18;;;;;;;3.60;1.92;;;21.20;55.30;;;;;;5015781;28;20026;-60
2021/09/21 12:45:44;;;;;;;3.88;1.40;;;21.30;55.30;;;;;;5013419;28;20041;-61
2021/09/21 12:48:10;;;;;;;3.88;1.65;;;21.20;55.30;;;;;;5013866;28;20046;-61
2021/09/21 12:50:40;;;;;;;3.90;1.70;;;21.30;55.30;;;;;;5006912;28;20033;-61
2021/09/21 12:53:05;;;;;;;3.95;1.30;;;21.30;55.30;;;;;;5015587;28;20029;-64
2021/09/21 12:55:32;;;;;;;4.47;1.65;;;21.30;55.20;;;;;;5015781;28;20034;-61
2021/09/21 12:58:00;;;;;;;2.95;1.33;;;21.30;55.30;;;;;;5014012;28;20022;-61
2021/09/21 13:00:33;;;;;;;3.42;1.30;;;21.30;55.30;;;;;;5003716;28;20045;-61
2021/09/21 13:02:59;;;;;;;3.78;1.42;;;21.30;55.40;;;;;;5002552;28;20156;-61